createdAt,value
2019-02-20T00:01:48.736Z,95720.5
2019-02-20T00:06:45.846Z,95721.9
2019-02-20T00:11:42.558Z,95724.4
2019-02-20T00:16:39.308Z,95724.1
2019-02-20T00:21:36.038Z,95714.6
2019-02-20T00:26:33.004Z,95680.7
2019-02-20T00:31:29.492Z,95718.6
2019-02-20T00:36:26.178Z,95718.2
2019-02-20T00:41:23.234Z,95713
2019-02-20T00:46:20.184Z,95719.8
2019-02-20T00:51:17.315Z,95715.2
2019-02-20T00:56:14.304Z,95704.3
2019-02-20T01:01:11.017Z,95772.2
2019-02-20T01:06:07.699Z,95704
2019-02-20T01:11:04.645Z,95840.4
2019-02-20T01:16:01.499Z,95828.9
2019-02-20T01:20:58.412Z,95846.9
2019-02-20T01:25:55.370Z,95852.4
2019-02-20T01:30:52.181Z,95826.8
2019-02-20T01:35:48.932Z,95696.4
2019-02-20T01:40:45.848Z,95828.9
2019-02-20T01:45:42.310Z,95769.6
2019-02-20T01:50:38.943Z,95832.1
2019-02-20T01:55:35.941Z,95764.4
2019-02-20T02:00:32.921Z,95764.6
2019-02-20T02:05:29.582Z,95764.4
2019-02-20T02:10:26.510Z,95753.3
2019-02-20T02:15:23.289Z,95761.9
2019-02-20T02:20:20.399Z,95693.8
2019-02-20T02:25:17.377Z,95763.9
2019-02-20T02:30:14.285Z,95761
2019-02-20T02:35:11.181Z,95764.6
2019-02-20T02:40:08.248Z,95719.6
2019-02-20T02:45:05.085Z,95760.6
2019-02-20T02:50:02.072Z,95761
2019-02-20T02:54:58.810Z,95755
2019-02-20T02:59:55.486Z,95758.3
2019-02-20T03:04:52.211Z,95736.4
2019-02-20T03:09:49.273Z,95766.5
2019-02-20T03:14:46.136Z,95770
2019-02-20T03:19:42.991Z,95766.2
2019-02-20T03:24:39.607Z,95764.9
2019-02-20T03:29:36.649Z,95764.6
2019-02-20T03:34:33.720Z,95701.3
2019-02-20T03:39:30.739Z,95780.1
2019-02-20T03:44:27.903Z,95772.1
2019-02-20T03:49:24.927Z,95764.3
2019-02-20T03:54:21.752Z,95765.4
2019-02-20T03:59:18.641Z,95766.7
2019-02-20T04:04:15.439Z,95682
2019-02-20T04:09:12.299Z,95666
2019-02-20T04:14:09.007Z,95749.7
2019-02-20T04:19:05.997Z,95761
2019-02-20T04:24:03.068Z,95772.3
2019-02-20T04:28:59.563Z,95770.7
2019-02-20T04:33:56.336Z,95768.9
2019-02-20T04:38:53.042Z,95770.8
2019-02-20T04:43:49.861Z,95759.8
2019-02-20T04:48:46.595Z,95764
2019-02-20T04:53:43.163Z,95760
2019-02-20T04:58:39.966Z,95764.5
2019-02-20T05:03:36.688Z,95768.6
2019-02-20T05:08:34.142Z,95774.5
2019-02-20T05:13:30.722Z,95775.8
2019-02-20T05:18:27.627Z,95774.5
2019-02-20T05:23:24.350Z,95787
2019-02-20T05:28:21.244Z,95787.6
2019-02-20T05:33:17.994Z,95788.9
2019-02-20T05:38:14.719Z,95801.5
2019-02-20T05:43:11.321Z,95808.9
2019-02-20T05:48:08.044Z,95813.9
2019-02-20T05:53:04.796Z,95815.6
2019-02-20T05:58:01.595Z,95813.6
2019-02-20T06:02:58.495Z,95826.2
2019-02-20T06:07:55.489Z,95825.7
2019-02-20T06:12:51.939Z,95822.2
2019-02-20T06:17:49.101Z,95798.6
2019-02-20T06:22:45.969Z,95805.7
2019-02-20T06:27:42.901Z,95851.4
2019-02-20T06:32:39.685Z,95854.4
2019-02-20T06:37:36.464Z,95858.2
2019-02-20T06:42:33.638Z,95807.5
2019-02-20T06:47:30.364Z,95861.5
2019-02-20T06:52:26.865Z,95863.1
2019-02-20T06:57:23.765Z,95877.2
2019-02-20T07:02:20.512Z,95870.5
2019-02-20T07:07:17.622Z,95871.4
2019-02-20T07:12:14.226Z,95869.8
2019-02-20T07:17:11.091Z,95874.1
2019-02-20T07:22:08.102Z,95869.8
2019-02-20T07:27:04.858Z,95870.7
2019-02-20T07:32:01.733Z,95838.3
2019-02-20T07:36:58.440Z,95867
2019-02-20T07:41:55.476Z,95879.4
2019-02-20T07:46:52.467Z,95877.8
2019-02-20T07:51:48.757Z,95881.3
2019-02-20T07:56:45.524Z,95877.7
2019-02-20T08:01:42.358Z,95874
2019-02-20T08:06:39.297Z,95868.3
2019-02-20T08:11:36.112Z,95941.3
2019-02-20T08:16:33.157Z,95901.4
2019-02-20T08:21:29.947Z,95932.6
2019-02-20T08:26:26.925Z,95926.4
2019-02-20T08:31:23.483Z,95912.2
2019-02-20T08:36:20.593Z,95918.9
2019-02-20T08:41:17.413Z,95780.1
2019-02-20T08:46:14.230Z,95912.5
2019-02-20T08:51:11.002Z,95862.4
2019-02-20T08:56:08.078Z,95808.9
2019-02-20T09:01:05.099Z,95856
2019-02-20T09:06:02.096Z,95785.5
2019-02-20T09:10:59.272Z,95780.4
2019-02-20T09:15:56.003Z,95781.9
2019-02-20T09:20:52.822Z,95773.4
2019-02-20T09:25:49.717Z,95769.5
2019-02-20T09:30:46.817Z,95770.8
2019-02-20T09:35:43.852Z,95769.2
2019-02-20T09:40:40.662Z,95766.3
2019-02-20T09:45:41.824Z,95839.2
2019-02-20T09:50:34.630Z,95754
2019-02-20T09:55:31.327Z,95749.1
2019-02-20T10:00:28.420Z,95813.4
2019-02-20T10:05:25.687Z,95822.3
2019-02-20T10:10:22.702Z,95742.4
2019-02-20T10:15:20.056Z,95734.1
2019-02-20T10:20:17.027Z,95721.1
2019-02-20T10:25:14.373Z,95711.2
2019-02-20T10:30:11.038Z,95700.2
2019-02-20T10:35:08.149Z,95721.2
2019-02-20T10:40:05.074Z,95759.9
2019-02-20T10:45:00.907Z,95748.4
2019-02-20T10:49:57.974Z,95754.7
2019-02-20T10:54:57.683Z,95739.3
2019-02-20T10:59:52.338Z,95728.9
2019-02-20T11:04:50.143Z,95715.1
2019-02-20T11:09:46.610Z,95721.2
2019-02-20T11:14:43.677Z,95727.1
2019-02-20T11:19:39.970Z,95739.1
2019-02-20T11:24:36.074Z,95717.9
2019-02-20T11:29:33.105Z,95410.9
2019-02-20T11:34:30.216Z,95733.9
2019-02-20T11:39:26.926Z,95720.2
2019-02-20T11:44:24.081Z,95720.9
2019-02-20T11:49:21.153Z,95722.1
2019-02-20T11:54:18.338Z,95719
2019-02-20T11:59:15.378Z,95709.1
2019-02-20T12:04:12.712Z,95711
2019-02-20T12:09:09.085Z,95705.4
2019-02-20T12:14:06.152Z,95289
2019-02-20T12:19:02.889Z,95698.4
2019-02-20T12:23:59.889Z,95703.8
2019-02-20T12:28:57.027Z,95713.9
2019-02-20T12:33:54.079Z,95707.5
2019-02-20T12:38:51.036Z,95650.2
2019-02-20T12:43:48.227Z,95633.8
2019-02-20T12:48:44.798Z,95707
2019-02-20T12:53:43.573Z,95690.5
2019-02-20T12:58:38.873Z,95676.1
2019-02-20T13:03:35.886Z,95682.9
2019-02-20T13:08:32.968Z,95686.4
2019-02-20T13:13:30.088Z,95679.4
2019-02-20T13:18:26.779Z,95694.4
2019-02-20T13:23:23.736Z,95692.8
2019-02-20T13:28:20.747Z,95646.1
2019-02-20T13:33:17.666Z,95690.6
2019-02-20T13:38:16.200Z,95668.4
2019-02-20T13:43:11.230Z,95697.2
2019-02-20T13:48:08.102Z,95620.8
2019-02-20T13:53:05.447Z,95708
2019-02-20T13:58:02.495Z,95713.2
2019-02-20T14:02:59.486Z,95715.7
2019-02-20T14:07:56.352Z,95720.1
2019-02-20T14:12:53.426Z,95656.2
2019-02-20T14:17:50.273Z,95724.8
2019-02-20T14:22:47.280Z,95718.7
2019-02-20T14:27:44.109Z,95723.2
2019-02-20T14:32:41.407Z,95701.3
2019-02-20T14:37:39.353Z,95724.4
2019-02-20T14:42:36.302Z,95728.6
2019-02-20T14:47:31.986Z,95732.1
2019-02-20T14:52:29.028Z,95729.9
2019-02-20T14:57:25.893Z,95713.4
2019-02-20T15:02:19.203Z,95739.9
2019-02-20T15:07:16.149Z,95736
2019-02-20T15:12:13.016Z,95730.7
2019-02-20T15:17:10.035Z,95677.5
2019-02-20T15:22:07.180Z,95733.2
2019-02-20T15:27:04.035Z,95742.4
2019-02-20T15:32:00.973Z,95748.2
2019-02-20T15:36:57.773Z,95742
2019-02-20T15:41:54.782Z,95742
2019-02-20T15:46:51.601Z,95748.1
2019-02-20T15:51:48.648Z,95750
2019-02-20T15:56:45.736Z,95762
2019-02-20T16:01:42.673Z,95765.5
2019-02-20T16:06:39.457Z,95771.2
2019-02-20T16:11:36.631Z,95778.4
2019-02-20T16:16:33.388Z,95794.7
2019-02-20T16:21:30.563Z,95789.1
2019-02-20T16:26:27.370Z,95587.8
2019-02-20T16:31:24.373Z,95806.7
2019-02-20T16:36:21.053Z,95812.1
2019-02-20T16:41:18.002Z,95823
2019-02-20T16:46:16.698Z,95831.1
2019-02-20T16:51:11.545Z,95839.4
2019-02-20T16:56:08.403Z,95844
2019-02-20T17:01:05.102Z,95853.1
2019-02-20T17:06:01.845Z,95854.5
2019-02-20T17:10:58.750Z,95867.8
2019-02-20T17:15:55.167Z,95873
2019-02-20T17:20:51.887Z,95877.2
2019-02-20T17:25:48.740Z,95886.7
2019-02-20T17:30:45.610Z,95887.8
2019-02-20T17:35:42.690Z,95891
2019-02-20T17:40:39.334Z,95823.4
2019-02-20T17:45:36.051Z,95829.7
2019-02-20T17:50:33.280Z,95840.4
2019-02-20T17:55:30.068Z,95919.3
2019-02-20T18:00:26.392Z,95849.4
2019-02-20T18:05:23.934Z,95930.2
2019-02-20T18:10:20.349Z,95867.1
2019-02-20T18:15:17.226Z,95862.1
2019-02-20T18:20:14.064Z,95940.5
2019-02-20T18:25:10.815Z,95878.8
2019-02-20T18:30:07.710Z,95873.9
2019-02-20T18:35:04.412Z,95883.2
2019-02-20T18:40:01.408Z,95888.6
2019-02-20T18:44:58.061Z,95893
2019-02-20T18:49:55.045Z,95897.6
2019-02-20T18:54:51.846Z,95880
2019-02-20T18:59:48.856Z,95978.9
2019-02-20T19:04:45.567Z,95917.5
2019-02-20T19:09:42.541Z,95925.9
2019-02-20T19:14:39.396Z,95920.1
2019-02-20T19:19:36.250Z,95923.4
2019-02-20T19:24:33.058Z,95931.9
2019-02-20T19:29:30.015Z,95936.4
2019-02-20T19:34:27.086Z,95944.3
2019-02-20T19:39:24.262Z,95932.4
2019-02-20T19:44:20.833Z,95937.7
2019-02-20T19:49:17.927Z,96012.9
2019-02-20T19:54:14.763Z,95940
2019-02-20T19:59:11.835Z,96020.6
2019-02-20T20:04:08.609Z,95946.9
2019-02-20T20:09:05.529Z,95943.9
2019-02-20T20:18:59.017Z,95942.8
2019-02-20T20:23:55.823Z,95923.6
2019-02-20T20:28:52.988Z,96017.6
2019-02-20T20:33:49.763Z,95943.7
2019-02-20T20:38:47.037Z,95995.9
2019-02-20T20:43:43.764Z,96018
2019-02-20T20:48:37.408Z,96017.4
2019-02-20T20:53:34.381Z,95947.3
2019-02-20T20:58:31.179Z,95959.2
2019-02-20T21:03:28.328Z,95959.9
2019-02-20T21:08:25.446Z,96026.5
2019-02-20T21:13:22.135Z,95961.9
2019-02-20T21:18:19.087Z,95959
2019-02-20T21:23:15.987Z,95964.8
2019-02-20T21:28:13.404Z,96042.8
2019-02-20T21:33:10.048Z,95974.5
2019-02-20T21:38:07.380Z,96042.9
2019-02-20T21:43:04.244Z,95962.6
2019-02-20T21:48:00.870Z,95971.4
2019-02-20T21:52:57.691Z,95972.6
2019-02-20T21:57:54.720Z,96049.3
2019-02-20T22:02:51.745Z,96055.7
2019-02-20T22:07:48.912Z,95982.4
2019-02-20T22:12:50.782Z,95989.6
2019-02-20T22:17:42.730Z,95998
2019-02-20T22:22:39.587Z,95996.7
2019-02-20T22:27:36.608Z,96075.9
2019-02-20T22:32:33.349Z,96003.6
2019-02-20T22:37:30.243Z,96002.5
2019-02-20T22:42:26.917Z,95995.7
2019-02-20T22:47:23.867Z,96000.4
2019-02-20T22:52:20.502Z,96002
2019-02-20T22:57:17.312Z,95989.9
2019-02-20T23:02:14.061Z,95998
2019-02-20T23:07:11.165Z,95992.1
2019-02-20T23:12:08.256Z,95998.9
2019-02-20T23:17:05.138Z,95999.9
2019-02-20T23:22:02.219Z,95993
2019-02-20T23:26:59.345Z,96003.8
2019-02-20T23:31:55.962Z,95992.4
2019-02-20T23:36:53.118Z,95996.6
2019-02-20T23:41:49.930Z,95992.5
2019-02-20T23:46:46.803Z,95997.2
2019-02-20T23:51:43.623Z,96041.9
